AEZ2603 LIEO-LIRF
Flight info
| Callsign | AEZ2603 |
|---|---|
| Flight time | N/A |
| Altitude | 28000 |
| Route | BATOX DCT TINTO DCT VALMA |
| Aircraft | A319/M-SDE3FGHIRWY/LB1 |
Departure
| Time | 2026-05-06 15:01 |
|---|---|
| Airport | Olbia Costa Smeralda Airport (LIEO) |
Arrival
| Time | N/A |
|---|---|
| Airport | Rome–Fiumicino Leonardo da Vinci International Airport (LIRF) |
| Time | Latitude | Longitude | Altitude | Speed | Heading |
|---|---|---|---|---|---|
| 2026-05-06 14:07 | 40.90267 | 9.51703 | 49 ft | 0 kts | 326° |
| 2026-05-06 14:47 | 40.90260 | 9.51710 | 50 ft | 2 kts | 326° |
| 2026-05-06 14:47 | 40.90247 | 9.51721 | 50 ft | 2 kts | 326° |
| 2026-05-06 14:48 | 40.90236 | 9.51731 | 51 ft | 0 kts | 326° |
| 2026-05-06 14:48 | 40.90228 | 9.51740 | 50 ft | 2 kts | 298° |
| 2026-05-06 14:48 | 40.90225 | 9.51759 | 50 ft | 2 kts | 258° |
| 2026-05-06 14:48 | 40.90228 | 9.51770 | 49 ft | 1 kts | 236° |
| 2026-05-06 14:49 | 40.90223 | 9.51758 | 49 ft | 4 kts | 237° |
| 2026-05-06 14:49 | 40.90203 | 9.51720 | 49 ft | 2 kts | 236° |
| 2026-05-06 14:49 | 40.90200 | 9.51713 | 49 ft | 0 kts | 236° |
| 2026-05-06 14:53 | 40.90199 | 9.51712 | 49 ft | 1 kts | 236° |
| 2026-05-06 14:53 | 40.90178 | 9.51672 | 49 ft | 8 kts | 236° |
| 2026-05-06 14:53 | 40.90131 | 9.51580 | 49 ft | 15 kts | 236° |
| 2026-05-06 14:54 | 40.90062 | 9.51493 | 49 ft | 11 kts | 189° |
| 2026-05-06 14:54 | 40.89999 | 9.51411 | 49 ft | 16 kts | 250° |
| 2026-05-06 14:54 | 40.90022 | 9.51388 | 49 ft | 10 kts | 46° |
| 2026-05-06 14:54 | 40.90044 | 9.51474 | 49 ft | 9 kts | 108° |
| 2026-05-06 14:55 | 40.89966 | 9.51508 | 49 ft | 15 kts | 196° |
| 2026-05-06 14:55 | 40.89878 | 9.51390 | 49 ft | 21 kts | 236° |
| 2026-05-06 14:55 | 40.89784 | 9.51211 | 49 ft | 25 kts | 236° |
| 2026-05-06 14:55 | 40.89675 | 9.51005 | 49 ft | 27 kts | 235° |
| 2026-05-06 14:56 | 40.89566 | 9.50790 | 49 ft | 28 kts | 236° |
| 2026-05-06 14:56 | 40.89456 | 9.50586 | 50 ft | 21 kts | 236° |
| 2026-05-06 14:56 | 40.89389 | 9.50468 | 50 ft | 0 kts | 223° |
| 2026-05-06 14:58 | 40.89386 | 9.50463 | 50 ft | 1 kts | 220° |
| 2026-05-06 14:58 | 40.89366 | 9.50449 | 49 ft | 4 kts | 202° |
| 2026-05-06 14:59 | 40.89322 | 9.50445 | 50 ft | 7 kts | 166° |
| 2026-05-06 14:59 | 40.89278 | 9.50501 | 50 ft | 10 kts | 103° |
| 2026-05-06 14:59 | 40.89263 | 9.50600 | 50 ft | 8 kts | 95° |
| 2026-05-06 14:59 | 40.89273 | 9.50628 | 50 ft | 0 kts | 56° |
| 2026-05-06 15:00 | 40.89280 | 9.50640 | 49 ft | 6 kts | 56° |
| 2026-05-06 15:00 | 40.89455 | 9.50981 | 50 ft | 85 kts | 54° |
| 2026-05-06 15:00 | 40.89939 | 9.51894 | 50 ft | 153 kts | 56° |
| 2026-05-06 15:00 | 40.90601 | 9.53127 | 551 ft | 168 kts | 55° |
| 2026-05-06 15:01 | 40.91268 | 9.54366 | 1356 ft | 170 kts | 56° |
| 2026-05-06 15:01 | 40.91952 | 9.55634 | 2145 ft | 172 kts | 54° |
| 2026-05-06 15:01 | 40.92646 | 9.56922 | 2869 ft | 175 kts | 54° |
| 2026-05-06 15:01 | 40.93365 | 9.58261 | 3438 ft | 188 kts | 53° |
| 2026-05-06 15:02 | 40.94123 | 9.59746 | 4052 ft | 200 kts | 58° |
| 2026-05-06 15:02 | 40.94856 | 9.61362 | 4636 ft | 215 kts | 58° |
| 2026-05-06 15:02 | 40.95723 | 9.63053 | 5252 ft | 233 kts | 53° |
| 2026-05-06 15:02 | 40.96743 | 9.64815 | 6009 ft | 244 kts | 52° |
| 2026-05-06 15:03 | 40.97779 | 9.66629 | 6807 ft | 251 kts | 54° |
| 2026-05-06 15:03 | 40.98827 | 9.68572 | 7474 ft | 265 kts | 56° |
| 2026-05-06 15:03 | 40.99901 | 9.70722 | 8082 ft | 284 kts | 58° |
| 2026-05-06 15:03 | 41.00997 | 9.73018 | 8704 ft | 300 kts | 59° |
| 2026-05-06 15:04 | 41.02120 | 9.75412 | 9559 ft | 306 kts | 60° |
| 2026-05-06 15:04 | 41.03251 | 9.77816 | 10423 ft | 310 kts | 60° |
| 2026-05-06 15:04 | 41.04411 | 9.80273 | 10983 ft | 325 kts | 59° |
| 2026-05-06 15:04 | 41.05645 | 9.82868 | 11524 ft | 339 kts | 58° |
| 2026-05-06 15:05 | 41.06914 | 9.85517 | 12282 ft | 345 kts | 58° |
| 2026-05-06 15:05 | 41.08195 | 9.88188 | 13123 ft | 348 kts | 58° |
| 2026-05-06 15:05 | 41.09501 | 9.90923 | 13932 ft | 352 kts | 58° |
| 2026-05-06 15:05 | 41.10818 | 9.93677 | 14675 ft | 356 kts | 59° |
| 2026-05-06 15:06 | 41.12146 | 9.96455 | 15382 ft | 361 kts | 59° |
| 2026-05-06 15:06 | 41.13504 | 9.99295 | 16132 ft | 364 kts | 59° |
| 2026-05-06 15:06 | 41.14854 | 10.02121 | 16834 ft | 369 kts | 60° |
| 2026-05-06 15:06 | 41.16230 | 10.05007 | 17525 ft | 374 kts | 60° |
| 2026-05-06 15:07 | 41.17643 | 10.07981 | 18251 ft | 377 kts | 60° |
| 2026-05-06 15:07 | 41.19051 | 10.10949 | 18922 ft | 381 kts | 60° |
| 2026-05-06 15:07 | 41.20473 | 10.14062 | 19503 ft | 387 kts | 63° |
| 2026-05-06 15:07 | 41.21726 | 10.17289 | 20105 ft | 392 kts | 67° |
| 2026-05-06 15:08 | 41.22792 | 10.20614 | 20706 ft | 396 kts | 70° |
| 2026-05-06 15:08 | 41.23828 | 10.24120 | 21266 ft | 403 kts | 70° |
| 2026-05-06 15:08 | 41.24835 | 10.27578 | 21802 ft | 408 kts | 70° |
| 2026-05-06 15:08 | 41.25858 | 10.31087 | 22366 ft | 413 kts | 70° |
| 2026-05-06 15:09 | 41.26913 | 10.34688 | 22928 ft | 418 kts | 70° |
| 2026-05-06 15:09 | 41.27977 | 10.38320 | 23435 ft | 424 kts | 70° |
| 2026-05-06 15:09 | 41.29049 | 10.41968 | 23840 ft | 429 kts | 70° |